createdAt,value
2018-01-19T00:02:20.419Z,15.43
2018-01-19T00:04:55.141Z,13.70
2018-01-19T00:07:29.355Z,10.33
2018-01-19T00:10:03.704Z,10.20
2018-01-19T00:12:37.624Z,6.67
2018-01-19T00:15:11.927Z,6.97
2018-01-19T00:17:46.616Z,9.30
2018-01-19T00:20:20.861Z,8.53
2018-01-19T00:22:55.041Z,11.37
2018-01-19T00:25:28.923Z,8.83
2018-01-19T00:28:03.328Z,8.40
2018-01-19T00:30:37.490Z,11.67
2018-01-19T00:33:12.814Z,11.00
2018-01-19T00:35:47.255Z,9.83
2018-01-19T00:38:21.062Z,6.87
2018-01-19T00:40:55.660Z,9.73
2018-01-19T00:43:30.940Z,10.17
2018-01-19T00:46:05.346Z,11.27
2018-01-19T00:48:39.091Z,7.77
2018-01-19T00:51:13.827Z,9.37
2018-01-19T00:53:47.689Z,5.50
2018-01-19T00:56:21.504Z,9.17
2018-01-19T00:58:55.234Z,9.67
2018-01-19T01:01:29.369Z,7.40
2018-01-19T01:04:03.489Z,5.97
2018-01-19T01:06:38.891Z,6.50
2018-01-19T01:09:13.950Z,7.07
2018-01-19T01:11:49.032Z,6.77
2018-01-19T01:14:23.419Z,8.53
2018-01-19T01:16:57.295Z,6.67
2018-01-19T01:19:32.036Z,7.43
2018-01-19T01:22:06.379Z,6.77
2018-01-19T01:24:40.422Z,5.77
2018-01-19T01:27:14.700Z,7.33
2018-01-19T01:29:49.496Z,5.23
2018-01-19T01:32:23.392Z,7.37
2018-01-19T01:34:57.477Z,6.20
2018-01-19T01:37:32.279Z,5.37
2018-01-19T01:40:06.453Z,7.33
2018-01-19T01:42:41.037Z,6.40
2018-01-19T01:45:15.604Z,5.67
2018-01-19T01:47:49.816Z,9.37
2018-01-19T01:50:24.398Z,4.80
2018-01-19T01:52:59.022Z,6.83
2018-01-19T01:55:32.945Z,4.53
2018-01-19T01:58:07.549Z,5.13
2018-01-19T02:00:41.584Z,7.17
2018-01-19T02:03:15.823Z,4.73
2018-01-19T02:05:50.099Z,4.27
2018-01-19T02:08:24.009Z,4.07
2018-01-19T02:10:57.847Z,5.67
2018-01-19T02:13:32.448Z,5.10
2018-01-19T02:16:06.438Z,4.47
2018-01-19T02:18:40.720Z,6.17
2018-01-19T02:21:14.903Z,6.33
2018-01-19T02:23:49.299Z,5.57
2018-01-19T02:26:23.405Z,5.90
2018-01-19T02:28:57.668Z,5.67
2018-01-19T02:31:31.728Z,4.53
2018-01-19T02:34:05.852Z,3.93
2018-01-19T02:36:39.913Z,5.17
2018-01-19T02:39:13.910Z,4.43
2018-01-19T02:41:47.911Z,7.17
2018-01-19T02:44:23.118Z,3.90
2018-01-19T02:46:57.111Z,6.13
2018-01-19T02:49:31.087Z,3.10
2018-01-19T02:52:05.832Z,5.33
2018-01-19T02:54:40.107Z,3.47
2018-01-19T02:57:14.557Z,3.60
2018-01-19T02:59:49.642Z,5.10
2018-01-19T03:02:23.367Z,3.50
2018-01-19T03:04:57.283Z,5.90
2018-01-19T03:07:31.719Z,2.03
2018-01-19T03:10:06.844Z,3.70
2018-01-19T03:12:41.367Z,2.20
2018-01-19T03:15:16.183Z,4.60
2018-01-19T03:17:50.141Z,3.17
2018-01-19T03:20:23.935Z,3.47
2018-01-19T03:22:59.367Z,6.40
2018-01-19T03:25:33.599Z,4.00
2018-01-19T03:28:07.956Z,2.63
2018-01-19T03:30:42.011Z,3.93
2018-01-19T03:33:16.385Z,3.07
2018-01-19T03:35:50.623Z,3.37
2018-01-19T03:38:24.838Z,2.67
2018-01-19T03:40:59.180Z,3.40
2018-01-19T03:43:33.139Z,2.77
2018-01-19T03:46:08.365Z,2.13
2018-01-19T03:48:42.827Z,3.97
2018-01-19T03:51:17.971Z,3.50
2018-01-19T03:53:51.939Z,3.00
2018-01-19T03:56:26.162Z,1.83
2018-01-19T03:59:00.442Z,2.27
2018-01-19T04:01:34.983Z,2.20
2018-01-19T04:04:09.150Z,2.67
2018-01-19T04:06:43.726Z,3.10
2018-01-19T04:09:17.937Z,1.90
2018-01-19T04:11:51.776Z,2.40
2018-01-19T04:14:25.629Z,4.17
2018-01-19T04:17:00.253Z,2.60
2018-01-19T04:19:34.755Z,1.70
2018-01-19T04:22:08.746Z,3.27
2018-01-19T04:24:43.441Z,2.57
2018-01-19T04:27:17.551Z,2.80
2018-01-19T04:29:51.319Z,1.90
2018-01-19T04:32:25.140Z,2.80
2018-01-19T04:34:59.663Z,1.70
2018-01-19T04:37:34.017Z,5.80
2018-01-19T04:40:08.601Z,1.87
2018-01-19T04:42:42.361Z,1.70
2018-01-19T04:45:17.011Z,3.20
2018-01-19T04:47:52.218Z,1.80
2018-01-19T04:50:26.431Z,2.90
2018-01-19T04:53:00.534Z,1.60
2018-01-19T04:55:34.557Z,1.90
2018-01-19T04:58:08.410Z,3.80
2018-01-19T05:00:42.349Z,3.87
2018-01-19T05:03:19.441Z,2.10
2018-01-19T05:05:53.912Z,2.13
2018-01-19T05:08:27.624Z,4.27
2018-01-19T05:11:01.544Z,1.80
2018-01-19T05:13:35.342Z,2.03
2018-01-19T05:16:09.184Z,3.27
2018-01-19T05:18:43.884Z,2.43
2018-01-19T05:21:17.740Z,4.53
2018-01-19T05:23:52.424Z,2.67
2018-01-19T05:26:26.507Z,4.33
2018-01-19T05:29:00.952Z,3.43
2018-01-19T05:31:34.794Z,2.73
2018-01-19T05:34:08.767Z,2.43
2018-01-19T05:36:42.465Z,2.00
2018-01-19T05:39:16.164Z,2.77
2018-01-19T05:41:49.888Z,3.63
2018-01-19T05:44:23.732Z,2.50
2018-01-19T05:46:57.655Z,3.60
2018-01-19T05:49:32.315Z,2.60
2018-01-19T05:52:06.596Z,4.20
2018-01-19T05:54:40.382Z,5.73
2018-01-19T05:57:15.075Z,4.27
2018-01-19T05:59:48.943Z,6.37
2018-01-19T06:02:23.881Z,2.87
2018-01-19T06:04:59.040Z,2.30
2018-01-19T06:07:33.154Z,2.67
2018-01-19T06:10:08.107Z,4.70
2018-01-19T06:12:43.044Z,3.43
2018-01-19T06:15:18.484Z,5.90
2018-01-19T06:17:53.801Z,4.20
2018-01-19T06:20:29.150Z,7.30
2018-01-19T06:23:04.747Z,3.33
2018-01-19T06:25:38.543Z,4.20
2018-01-19T06:28:12.397Z,2.60
2018-01-19T06:30:46.951Z,4.77
2018-01-19T06:33:21.041Z,4.97
2018-01-19T06:35:54.981Z,2.67
2018-01-19T06:38:29.626Z,3.13
2018-01-19T06:41:03.496Z,16.13
2018-01-19T06:43:37.227Z,9.90
2018-01-19T06:46:11.045Z,3.90
2018-01-19T06:48:44.800Z,4.90
2018-01-19T06:51:19.645Z,4.63
2018-01-19T06:53:53.487Z,4.80
2018-01-19T06:56:28.176Z,4.10
2018-01-19T06:59:02.199Z,5.27
2018-01-19T07:01:36.432Z,5.40
2018-01-19T07:04:10.704Z,3.73
2018-01-19T07:06:45.535Z,4.97
2018-01-19T07:09:20.749Z,6.63
2018-01-19T07:11:56.040Z,4.43
2018-01-19T07:14:30.341Z,2.40
2018-01-19T07:17:04.393Z,2.50
2018-01-19T07:19:38.223Z,7.37
2018-01-19T07:22:12.872Z,4.00
2018-01-19T07:24:47.151Z,3.70
2018-01-19T07:27:21.579Z,3.63
2018-01-19T07:29:55.697Z,8.20
2018-01-19T07:32:29.764Z,3.97
2018-01-19T07:35:03.638Z,7.13
2018-01-19T07:37:37.760Z,4.03
2018-01-19T07:40:13.265Z,5.23
2018-01-19T07:42:47.268Z,6.40
2018-01-19T07:45:21.133Z,5.83
2018-01-19T07:47:55.890Z,5.80
2018-01-19T07:50:30.644Z,6.03
2018-01-19T07:53:05.598Z,10.03
2018-01-19T07:55:39.754Z,3.40
2018-01-19T07:58:14.427Z,7.60
2018-01-19T08:00:48.274Z,7.07
2018-01-19T08:03:24.980Z,5.57
2018-01-19T08:05:58.661Z,8.17
2018-01-19T08:08:32.506Z,4.27
2018-01-19T08:11:06.335Z,4.07
2018-01-19T08:13:40.502Z,4.17
2018-01-19T08:16:14.686Z,3.90
2018-01-19T08:18:49.715Z,4.20
2018-01-19T08:21:23.709Z,7.00
2018-01-19T08:23:57.930Z,4.80
2018-01-19T08:26:31.886Z,4.47
2018-01-19T08:29:06.902Z,5.87
2018-01-19T08:31:41.064Z,5.43
2018-01-19T08:34:15.071Z,8.07
2018-01-19T08:36:49.391Z,5.10
2018-01-19T08:39:24.050Z,4.33
2018-01-19T08:41:58.291Z,4.90
2018-01-19T08:44:33.283Z,7.40
2018-01-19T08:47:07.377Z,8.17
2018-01-19T08:49:41.521Z,6.23
2018-01-19T08:52:15.269Z,5.90
2018-01-19T08:54:50.094Z,7.93
2018-01-19T08:57:24.071Z,11.60
2018-01-19T08:59:58.059Z,6.10
2018-01-19T09:02:31.934Z,8.37
2018-01-19T09:05:06.493Z,5.07
2018-01-19T09:07:40.703Z,6.73
2018-01-19T09:10:14.679Z,7.40
2018-01-19T09:12:49.664Z,7.97
2018-01-19T09:15:24.289Z,7.43
2018-01-19T09:17:58.181Z,6.10
2018-01-19T09:20:33.426Z,8.47
2018-01-19T09:23:08.713Z,9.53
2018-01-19T09:25:44.133Z,7.90
2018-01-19T09:28:18.024Z,12.50
2018-01-19T09:30:52.956Z,6.83
2018-01-19T09:33:27.568Z,6.43
2018-01-19T09:36:01.633Z,9.40
2018-01-19T09:38:35.691Z,5.97
2018-01-19T09:41:09.759Z,8.53
2018-01-19T09:43:43.825Z,7.13
2018-01-19T09:46:18.285Z,7.37
2018-01-19T09:48:52.264Z,10.20
2018-01-19T09:51:26.425Z,8.93
2018-01-19T09:54:04.419Z,10.77
2018-01-19T09:56:39.072Z,10.03
2018-01-19T09:59:13.358Z,6.53
2018-01-19T10:01:47.931Z,5.57
2018-01-19T10:04:21.737Z,5.37
2018-01-19T10:06:55.468Z,7.27
2018-01-19T10:09:30.170Z,7.70
2018-01-19T10:12:03.979Z,4.37
2018-01-19T10:14:37.701Z,5.83
2018-01-19T10:17:13.345Z,8.77
2018-01-19T10:19:47.453Z,6.10
2018-01-19T10:22:21.251Z,8.43
2018-01-19T10:24:55.013Z,7.20
2018-01-19T10:27:29.459Z,6.37
2018-01-19T10:30:03.522Z,9.67
2018-01-19T10:32:37.362Z,9.23
2018-01-19T10:35:11.411Z,6.57
2018-01-19T10:37:45.911Z,5.47
2018-01-19T10:40:19.771Z,7.73
2018-01-19T10:42:53.930Z,7.80
2018-01-19T10:45:29.062Z,9.90
2018-01-19T10:48:03.472Z,6.63
2018-01-19T10:50:38.375Z,6.20
2018-01-19T10:53:13.744Z,8.57
2018-01-19T10:55:48.252Z,8.90
2018-01-19T10:58:22.533Z,7.07
2018-01-19T11:00:57.707Z,5.57
2018-01-19T11:03:32.162Z,7.00
2018-01-19T11:06:05.954Z,5.23
2018-01-19T11:08:39.921Z,8.03
2018-01-19T11:11:14.471Z,11.03
2018-01-19T11:13:48.658Z,11.23
2018-01-19T11:16:23.197Z,10.00
2018-01-19T11:18:57.417Z,16.47
2018-01-19T11:21:32.054Z,13.03
2018-01-19T11:24:06.203Z,10.53
2018-01-19T11:26:40.678Z,12.83
2018-01-19T11:29:15.385Z,13.00
2018-01-19T11:31:49.906Z,12.33
2018-01-19T11:34:24.029Z,11.17
2018-01-19T11:36:58.695Z,6.43
2018-01-19T11:39:32.424Z,10.53
2018-01-19T11:42:07.154Z,11.47
2018-01-19T11:44:40.917Z,7.57
2018-01-19T11:47:14.948Z,8.93
2018-01-19T11:49:49.102Z,6.17
2018-01-19T11:52:23.256Z,11.33
2018-01-19T11:54:58.211Z,12.03
2018-01-19T11:57:33.528Z,6.23
2018-01-19T12:00:08.319Z,7.10
2018-01-19T12:02:42.282Z,9.23
2018-01-19T12:05:16.604Z,8.73
2018-01-19T12:07:50.835Z,9.17
2018-01-19T12:10:24.983Z,15.50
2018-01-19T12:12:59.943Z,8.07
2018-01-19T12:15:34.236Z,10.10
2018-01-19T12:18:08.459Z,9.10
2018-01-19T12:20:43.443Z,6.93
2018-01-19T12:23:18.823Z,9.80
2018-01-19T12:25:52.610Z,6.53
2018-01-19T12:28:27.381Z,8.97
2018-01-19T12:31:01.348Z,9.20
2018-01-19T12:33:35.190Z,6.13
2018-01-19T12:36:09.917Z,4.07
2018-01-19T12:38:43.939Z,8.03
2018-01-19T12:41:18.491Z,6.93
2018-01-19T12:43:52.522Z,7.50
2018-01-19T12:46:26.530Z,6.10
2018-01-19T12:49:00.219Z,9.77
2018-01-19T12:51:33.979Z,5.77
2018-01-19T12:54:07.827Z,6.37
2018-01-19T12:56:41.739Z,8.97
2018-01-19T12:59:16.166Z,10.33
2018-01-19T13:01:50.563Z,11.17
2018-01-19T13:04:25.532Z,9.07
2018-01-19T13:07:00.172Z,7.87
2018-01-19T13:09:34.952Z,7.53
2018-01-19T13:12:09.151Z,8.87
2018-01-19T13:14:43.275Z,12.87
2018-01-19T13:17:17.635Z,7.27
2018-01-19T13:19:51.827Z,5.97
2018-01-19T13:22:26.085Z,5.33
2018-01-19T13:25:00.896Z,6.57
2018-01-19T13:27:36.077Z,5.53
2018-01-19T13:30:10.618Z,8.43
2018-01-19T13:32:45.446Z,7.03
2018-01-19T13:35:19.605Z,4.27
2018-01-19T13:37:54.279Z,5.33
2018-01-19T13:40:28.381Z,6.10
2018-01-19T13:43:02.075Z,5.70
2018-01-19T13:45:35.797Z,5.17
2018-01-19T13:48:09.482Z,6.93
2018-01-19T13:50:43.353Z,5.73
2018-01-19T13:53:17.947Z,6.30
2018-01-19T13:55:52.052Z,8.47
2018-01-19T13:58:26.692Z,9.63
2018-01-19T14:01:00.787Z,7.53
2018-01-19T14:03:34.609Z,7.30
2018-01-19T14:06:08.379Z,8.43
2018-01-19T14:08:42.331Z,9.07
2018-01-19T14:11:16.582Z,9.77
2018-01-19T14:13:51.534Z,6.40
2018-01-19T14:16:26.435Z,12.40
2018-01-19T14:19:01.065Z,9.40
2018-01-19T14:21:34.919Z,9.63
2018-01-19T14:24:09.823Z,9.53
2018-01-19T14:26:44.766Z,11.60
2018-01-19T14:29:19.272Z,11.40
2018-01-19T14:31:53.050Z,9.77
2018-01-19T14:34:27.078Z,9.97
2018-01-19T14:37:02.232Z,7.67
2018-01-19T14:39:36.553Z,10.30
2018-01-19T14:42:11.488Z,9.33
2018-01-19T14:44:45.884Z,13.17
2018-01-19T14:47:20.539Z,12.70
2018-01-19T14:49:54.496Z,17.33
2018-01-19T14:52:29.306Z,12.60
2018-01-19T14:55:03.339Z,17.77
2018-01-19T14:57:37.119Z,17.27
2018-01-19T15:00:11.051Z,12.13
2018-01-19T15:02:46.599Z,12.33
2018-01-19T15:05:21.426Z,9.10
2018-01-19T15:07:56.465Z,10.13
2018-01-19T15:10:31.085Z,13.00
2018-01-19T15:13:06.548Z,12.40
2018-01-19T15:15:41.262Z,11.03
2018-01-19T15:18:15.272Z,10.83
2018-01-19T15:20:49.657Z,12.67
2018-01-19T15:23:26.617Z,6.70
2018-01-19T15:26:00.636Z,9.73
2018-01-19T15:28:34.917Z,13.37
2018-01-19T15:31:09.167Z,11.80
2018-01-19T15:33:43.269Z,7.73
2018-01-19T15:36:17.564Z,8.87
2018-01-19T15:38:51.616Z,9.40
2018-01-19T15:41:25.708Z,11.23
2018-01-19T15:43:59.520Z,12.90
2018-01-19T15:46:33.273Z,12.93
2018-01-19T15:49:07.384Z,11.37
2018-01-19T15:51:42.447Z,10.00
2018-01-19T15:54:18.087Z,11.53
2018-01-19T15:56:52.825Z,11.13
2018-01-19T15:59:29.139Z,13.47
2018-01-19T16:02:03.115Z,8.20
2018-01-19T16:04:37.065Z,9.40
2018-01-19T16:07:12.574Z,9.67
2018-01-19T16:09:47.485Z,14.23
2018-01-19T16:12:22.501Z,11.70
2018-01-19T16:14:57.314Z,6.17
2018-01-19T16:17:33.265Z,4.73
2018-01-19T16:20:08.718Z,7.77
2018-01-19T16:22:43.696Z,4.13
2018-01-19T16:25:19.092Z,4.80
2018-01-19T16:27:54.225Z,8.77
2018-01-19T16:30:28.583Z,8.67
2018-01-19T16:33:02.763Z,9.43
2018-01-19T16:35:38.518Z,8.70
2018-01-19T16:38:13.261Z,14.47
2018-01-19T16:40:47.357Z,8.20
2018-01-19T16:43:23.241Z,9.47
2018-01-19T16:45:57.618Z,7.97
2018-01-19T16:48:32.981Z,6.83
2018-01-19T16:51:08.114Z,5.80
2018-01-19T16:53:42.354Z,9.90
2018-01-19T16:56:16.238Z,6.80
2018-01-19T16:58:50.455Z,7.57
2018-01-19T17:01:24.554Z,9.70
2018-01-19T17:03:58.658Z,11.60
2018-01-19T17:06:33.014Z,16.43
2018-01-19T17:09:08.224Z,7.27
2018-01-19T17:11:42.253Z,7.80
2018-01-19T17:14:17.865Z,8.10
2018-01-19T17:16:52.098Z,8.73
2018-01-19T17:19:26.113Z,8.87
2018-01-19T17:22:00.030Z,6.00
2018-01-19T17:24:35.638Z,8.13
2018-01-19T17:27:09.493Z,8.63
2018-01-19T17:29:44.867Z,9.63
2018-01-19T17:32:19.032Z,7.97
2018-01-19T17:34:54.503Z,8.90
2018-01-19T17:37:29.083Z,8.23
2018-01-19T17:40:04.224Z,11.27
2018-01-19T17:42:40.431Z,6.93
2018-01-19T17:45:14.709Z,9.23
2018-01-19T17:47:48.971Z,8.57
2018-01-19T17:50:23.852Z,9.23
2018-01-19T17:52:58.994Z,11.00
2018-01-19T17:55:32.913Z,8.20
2018-01-19T17:58:07.718Z,7.27
2018-01-19T18:00:43.241Z,8.63
2018-01-19T18:03:19.736Z,9.53
2018-01-19T18:05:55.155Z,5.63
2018-01-19T18:08:30.119Z,7.93
2018-01-19T18:11:04.045Z,10.67
2018-01-19T18:13:38.732Z,9.53
2018-01-19T18:16:12.966Z,8.77
2018-01-19T18:18:47.002Z,6.43
2018-01-19T18:21:22.017Z,7.13
2018-01-19T18:23:56.778Z,8.00
2018-01-19T18:26:31.464Z,6.97
2018-01-19T18:29:06.045Z,10.57
2018-01-19T18:31:40.126Z,6.90
2018-01-19T18:34:14.908Z,7.17
2018-01-19T18:36:49.804Z,5.20
2018-01-19T18:39:24.401Z,10.07
2018-01-19T18:41:59.416Z,7.97
2018-01-19T18:44:33.167Z,10.23
2018-01-19T18:47:06.970Z,9.37
2018-01-19T18:49:40.874Z,6.43
2018-01-19T18:52:16.397Z,8.13
2018-01-19T18:54:51.001Z,7.97
2018-01-19T18:57:24.947Z,8.80
2018-01-19T18:59:59.059Z,9.20
2018-01-19T19:02:32.777Z,13.07
2018-01-19T19:05:06.685Z,8.47
2018-01-19T19:07:40.755Z,11.47
2018-01-19T19:10:15.528Z,10.63
2018-01-19T19:12:49.505Z,9.70
2018-01-19T19:15:24.324Z,12.83
2018-01-19T19:17:58.369Z,8.83
2018-01-19T19:20:32.157Z,10.67
2018-01-19T19:23:06.901Z,11.97
2018-01-19T19:25:42.089Z,13.07
2018-01-19T19:28:16.426Z,8.73
2018-01-19T19:30:51.782Z,7.77
2018-01-19T19:33:25.840Z,10.13
2018-01-19T19:35:59.612Z,6.97
2018-01-19T19:38:33.539Z,8.10
2018-01-19T19:41:09.036Z,10.67
2018-01-19T19:43:43.204Z,8.10
2018-01-19T19:46:17.666Z,8.10
2018-01-19T19:48:51.508Z,7.67
2018-01-19T19:51:25.278Z,11.43
2018-01-19T19:53:59.070Z,9.87
2018-01-19T19:56:32.877Z,13.07
2018-01-19T19:59:07.489Z,15.00
2018-01-19T20:01:41.359Z,12.67
2018-01-19T20:04:15.199Z,9.83
2018-01-19T20:06:50.769Z,8.73
2018-01-19T20:09:24.950Z,10.73
2018-01-19T20:11:59.789Z,7.73
2018-01-19T20:14:34.477Z,11.10
2018-01-19T20:17:09.312Z,12.17
2018-01-19T20:19:43.627Z,11.57
2018-01-19T20:22:17.526Z,10.20
2018-01-19T20:24:51.715Z,8.90
2018-01-19T20:27:26.541Z,7.73
2018-01-19T20:30:01.503Z,6.63
2018-01-19T20:32:35.632Z,5.80
2018-01-19T20:35:09.898Z,5.93
2018-01-19T20:37:43.900Z,7.60
2018-01-19T20:40:17.825Z,7.93
2018-01-19T20:42:51.995Z,6.60
2018-01-19T20:45:26.593Z,7.27
2018-01-19T20:48:00.817Z,7.23
2018-01-19T20:50:36.257Z,7.10
2018-01-19T20:53:10.177Z,8.20
2018-01-19T20:55:45.156Z,7.90
2018-01-19T20:58:20.497Z,10.33
2018-01-19T21:00:54.251Z,7.60
2018-01-19T21:03:29.165Z,7.27
2018-01-19T21:06:04.488Z,7.50
2018-01-19T21:08:38.385Z,8.70
2018-01-19T21:11:13.943Z,8.93
2018-01-19T21:13:48.152Z,10.43
2018-01-19T21:16:22.859Z,10.00
2018-01-19T21:18:57.693Z,8.20
2018-01-19T21:21:32.225Z,9.33
2018-01-19T21:24:07.589Z,10.97
2018-01-19T21:26:42.065Z,11.30
2018-01-19T21:29:15.893Z,23.73
2018-01-19T21:31:49.890Z,14.33
2018-01-19T21:34:25.415Z,14.37
2018-01-19T21:36:59.812Z,12.33
2018-01-19T21:39:33.511Z,12.07
2018-01-19T21:42:07.677Z,10.13
2018-01-19T21:44:42.650Z,11.97
2018-01-19T21:47:16.973Z,8.97
2018-01-19T21:49:51.064Z,12.00
2018-01-19T21:52:25.867Z,9.77
2018-01-19T21:55:01.137Z,11.43
2018-01-19T21:57:35.861Z,10.37
2018-01-19T22:00:10.735Z,11.17
2018-01-19T22:02:44.724Z,12.83
2018-01-19T22:05:19.497Z,12.53
2018-01-19T22:07:53.304Z,10.67
2018-01-19T22:10:28.023Z,18.93
2018-01-19T22:13:02.753Z,19.63
2018-01-19T22:15:37.438Z,19.67
2018-01-19T22:18:11.587Z,18.20
2018-01-19T22:20:46.262Z,13.20
2018-01-19T22:23:22.335Z,10.87
2018-01-19T22:25:56.734Z,10.00
2018-01-19T22:28:30.619Z,9.33
2018-01-19T22:31:04.316Z,9.77
2018-01-19T22:33:38.306Z,11.97
2018-01-19T22:36:13.247Z,10.40
2018-01-19T22:38:48.222Z,12.57
2018-01-19T22:41:22.917Z,11.87
2018-01-19T22:43:57.908Z,10.80
2018-01-19T22:46:32.426Z,12.10
2018-01-19T22:49:06.461Z,10.43
2018-01-19T22:51:41.244Z,9.60
2018-01-19T22:54:15.224Z,7.60
2018-01-19T22:56:49.425Z,9.87
2018-01-19T22:59:24.684Z,12.80
2018-01-19T23:01:58.786Z,15.70
2018-01-19T23:04:33.703Z,9.10
2018-01-19T23:07:08.201Z,9.13
2018-01-19T23:09:41.984Z,12.67
2018-01-19T23:12:15.780Z,6.97
2018-01-19T23:14:49.623Z,8.03
2018-01-19T23:17:24.151Z,6.00
2018-01-19T23:19:57.980Z,6.43
2018-01-19T23:22:32.879Z,5.50
2018-01-19T23:25:07.023Z,12.03
2018-01-19T23:27:41.736Z,13.77
2018-01-19T23:30:15.681Z,10.17
2018-01-19T23:32:49.811Z,10.20
2018-01-19T23:35:24.393Z,8.10
2018-01-19T23:37:58.216Z,8.37
2018-01-19T23:40:32.723Z,6.00
2018-01-19T23:43:07.658Z,11.40
2018-01-19T23:45:42.290Z,10.63
2018-01-19T23:48:16.543Z,9.53
2018-01-19T23:50:50.327Z,7.83
2018-01-19T23:53:25.306Z,6.73
2018-01-19T23:55:59.427Z,12.97
2018-01-19T23:58:33.477Z,49.13
